Time;durP1;ratioP1;P1;durP2;ratioP2;P2;SDS_P1;SDS_P2;PMS_P1;PMS_P2;Temp;Humidity;BMP_temperature;BMP_pressure;BME280_temperature;BME280_humidity;BME280_pressure;Samples;Min_cycle;Max_cycle;Signal;HPM_P1;HPM_P2
2022/07/03 00:01:49;;;;;;;12.82;5.90;;;;;;;15.68;100.00;100355.86;1664377;86;21025;-74
2022/07/03 00:04:18;;;;;;;11.38;5.80;;;;;;;15.63;100.00;100356.97;1664262;85;21109;-74
2022/07/03 00:06:44;;;;;;;13.10;6.00;;;;;;;15.59;100.00;100359.25;1664443;85;21034;-73
2022/07/03 00:09:11;;;;;;;12.03;6.00;;;;;;;15.55;100.00;100353.34;1664209;86;21600;-74
2022/07/03 00:11:38;;;;;;;13.30;6.47;;;;;;;15.53;100.00;100354.06;1652761;86;21054;-75
2022/07/03 00:14:05;;;;;;;13.15;6.25;;;;;;;15.49;100.00;100348.69;1664300;86;21796;-74
2022/07/03 00:16:33;;;;;;;14.43;6.40;;;;;;;15.44;100.00;100344.34;1663981;86;21030;-74
2022/07/03 00:19:00;;;;;;;13.88;6.25;;;;;;;15.41;100.00;100343.89;1664343;86;21003;-73
2022/07/03 00:21:41;;;;;;;15.78;6.30;;;;;;;15.38;100.00;100339.13;1664310;86;21046;-73
2022/07/03 00:24:10;;;;;;;13.60;6.50;;;;;;;15.35;100.00;100339.55;1646640;86;21115;-73
2022/07/03 00:26:39;;;;;;;11.48;5.22;;;;;;;15.31;100.00;100334.14;1661847;86;21546;-73
2022/07/03 00:29:09;;;;;;;10.72;5.42;;;;;;;15.29;100.00;100339.48;1661794;86;21093;-73
2022/07/03 00:31:36;;;;;;;12.10;5.55;;;;;;;15.23;100.00;100330.20;1661808;86;21064;-73
2022/07/03 00:34:03;;;;;;;9.28;5.03;;;;;;;15.17;100.00;100326.39;1661728;86;21096;-73
2022/07/03 00:36:35;;;;;;;11.40;5.83;;;;;;;15.15;100.00;100332.52;1661725;86;21068;-73
2022/07/03 00:39:02;;;;;;;11.68;5.05;;;;;;;15.13;100.00;100320.98;1601242;89;21063;-74
2022/07/03 00:41:32;;;;;;;7.47;4.55;;;;;;;15.11;100.00;100316.25;1599615;90;21566;-74
2022/07/03 00:43:59;;;;;;;7.47;4.50;;;;;;;15.09;100.00;100317.50;1599618;90;21594;-73
2022/07/03 00:46:27;;;;;;;10.58;4.62;;;;;;;15.06;100.00;100313.27;1599754;89;21107;-74
2022/07/03 00:48:55;;;;;;;7.25;4.10;;;;;;;15.03;100.00;100316.89;1599618;90;21122;-73
2022/07/03 00:51:27;;;;;;;7.40;4.20;;;;;;;14.99;100.00;100308.27;1599598;90;21043;-74
2022/07/03 00:53:57;;;;;;;7.83;4.50;;;;;;;14.95;100.00;100305.09;1599543;90;21054;-74
2022/07/03 00:56:29;;;;;;;8.33;4.10;;;;;;;14.92;100.00;100303.27;1599799;90;21562;-74
2022/07/03 00:58:58;;;;;;;7.77;4.53;;;;;;;14.89;100.00;100295.48;1599868;90;21091;-73
2022/07/03 01:01:29;;;;;;;10.00;4.28;;;;;;;14.85;100.00;100295.02;1599572;90;21147;-74
2022/07/03 01:04:24;;;;;;;10.25;4.60;;;;;;;14.81;100.00;100289.13;1599560;90;21055;-74
2022/07/03 01:06:55;;;;;;;8.65;4.60;;;;;;;14.80;100.00;100290.18;1553127;92;21104;-73
2022/07/03 01:09:27;;;;;;;8.30;4.85;;;;;;;14.78;100.00;100293.62;1555549;92;21110;-74
2022/07/03 01:12:05;;;;;;;6.75;4.65;;;;;;;14.78;100.00;100293.62;1555209;92;21043;-73
2022/07/03 01:14:58;;;;;;;11.30;4.72;;;;;;;14.80;100.00;100294.76;1557471;91;21055;-74
2022/07/03 01:17:35;;;;;;;7.92;5.10;;;;;;;14.78;100.00;100300.42;1555227;92;21052;-73
2022/07/03 01:20:03;;;;;;;16.02;5.45;;;;;;;14.77;100.00;100300.61;1548711;92;21063;-74
2022/07/03 01:22:44;;;;;;;14.73;4.92;;;;;;;14.76;100.00;100305.19;1515344;95;21648;-73
2022/07/03 01:25:39;;;;;;;11.65;5.30;;;;;;;14.75;100.00;100299.44;1515154;94;21141;-73
2022/07/03 01:28:14;;;;;;;10.95;5.00;;;;;;;14.72;100.00;100294.89;1515491;95;21106;-72
2022/07/03 01:30:46;;;;;;;13.38;5.37;;;;;;;14.68;100.00;100291.72;1515353;95;21150;-73
2022/07/03 01:33:19;;;;;;;12.88;5.60;;;;;;;14.64;100.00;100293.64;1515378;93;21107;-74
2022/07/03 01:36:05;;;;;;;9.40;5.20;;;;;;;14.60;100.00;100298.09;1515446;95;21162;-74
2022/07/03 01:38:40;;;;;;;12.50;5.70;;;;;;;14.56;100.00;100293.22;1515302;95;21082;-73
2022/07/03 01:41:08;;;;;;;12.10;5.42;;;;;;;14.56;100.00;100297.30;1465533;94;21161;-72
2022/07/03 01:43:44;;;;;;;13.53;5.97;;;;;;;14.55;100.00;100298.31;1543280;92;21110;-73
2022/07/03 01:46:10;;;;;;;10.75;5.47;;;;;;;14.51;100.00;100291.05;1575807;91;21108;-73
2022/07/03 01:48:37;;;;;;;9.43;5.37;;;;;;;14.49;100.00;100294.48;1575379;91;21131;-73
2022/07/03 01:51:05;;;;;;;11.45;5.90;;;;;;;14.46;100.00;100285.34;1575470;91;21115;-73
2022/07/03 01:53:32;;;;;;;10.35;5.25;;;;;;;14.43;100.00;100282.49;1575369;91;21722;-73
2022/07/03 01:56:00;;;;;;;15.60;6.60;;;;;;;14.42;100.00;100287.59;1575617;90;21063;-73
2022/07/03 01:58:27;;;;;;;14.00;6.53;;;;;;;14.42;100.00;100287.59;1575717;91;21070;-73
2022/07/03 02:01:05;;;;;;;12.68;6.95;;;;;;;14.44;100.00;100284.69;1575421;90;21126;-74
2022/07/03 02:03:34;;;;;;;13.83;7.05;;;;;;;14.46;100.00;100277.70;1575712;91;21079;-73
2022/07/03 02:06:14;;;;;;;17.20;8.65;;;;;;;14.47;100.00;100276.68;1575644;91;21023;-73
2022/07/03 02:08:52;;;;;;;14.53;7.90;;;;;;;14.48;100.00;100285.15;1577128;90;21072;-73
2022/07/03 02:11:22;;;;;;;21.23;9.70;;;;;;;14.49;100.00;100288.21;1577202;89;21048;-73
2022/07/03 02:17:02;;;;;;;17.32;9.80;;;;;;;14.47;100.00;100282.95;1593609;89;21636;-73
2022/07/03 02:19:54;;;;;;;21.12;10.18;;;;;;;14.47;100.00;100282.95;1596659;90;21088;-76
2022/07/03 02:22:35;;;;;;;17.75;9.38;;;;;;;14.47;100.00;100276.16;1596857;89;21100;-75
2022/07/03 02:25:25;;;;;;;15.85;8.25;;;;;;;14.50;100.00;100274.42;1596648;90;21195;-76
2022/07/03 02:27:59;;;;;;;16.12;7.60;;;;;;;14.49;100.00;100268.64;1600289;88;21056;-77
2022/07/03 02:30:28;;;;;;;16.00;6.80;;;;;;;14.49;100.00;100268.64;1596753;90;21076;-76
2022/07/03 02:32:57;;;;;;;13.68;7.22;;;;;;;14.53;100.00;100269.09;1596938;90;21107;-75
2022/07/03 02:35:30;;;;;;;12.73;7.03;;;;;;;14.54;100.00;100262.11;1596957;88;21179;-76
2022/07/03 02:38:13;;;;;;;12.45;6.37;;;;;;;14.57;100.00;100266.31;1610536;88;21075;-75
2022/07/03 02:41:02;;;;;;;11.40;6.45;;;;;;;14.57;100.00;100255.42;1615425;87;21081;-76
2022/07/03 02:43:59;;;;;;;12.37;5.90;;;;;;;14.60;100.00;100251.83;1615133;87;21088;-76
2022/07/03 02:46:50;;;;;;;12.35;5.83;;;;;;;14.60;100.00;100251.83;1617888;88;21089;-76
2022/07/03 02:49:28;;;;;;;15.63;6.72;;;;;;;14.66;100.00;100252.97;1617652;89;21093;-76
2022/07/03 02:52:12;;;;;;;12.35;6.10;;;;;;;14.71;100.00;100260.53;1617879;89;21056;-76
2022/07/03 02:54:46;;;;;;;10.23;5.58;;;;;;;14.74;100.00;100255.55;1550886;93;21060;-77
2022/07/03 02:57:16;;;;;;;11.10;5.50;;;;;;;14.80;100.00;100254.80;1552613;93;21032;-75
2022/07/03 03:00:04;;;;;;;11.18;5.53;;;;;;;14.86;100.00;100252.33;1553119;93;21116;-73
2022/07/03 03:02:57;;;;;;;9.78;5.17;;;;;;;14.92;100.00;100259.19;1549334;92;21068;-73
2022/07/03 03:05:38;;;;;;;10.50;5.20;;;;;;;14.98;100.00;100263.03;1550772;93;21578;-73
2022/07/03 03:08:14;;;;;;;11.38;5.08;;;;;;;15.06;100.00;100265.61;1550857;93;21152;-73
2022/07/03 03:10:42;;;;;;;7.78;4.90;;;;;;;15.15;100.00;100262.23;1550847;93;21108;-74
2022/07/03 03:13:12;;;;;;;8.80;4.90;;;;;;;15.24;100.00;100264.30;1569469;89;21086;-74
2022/07/03 03:15:43;;;;;;;11.45;5.70;;;;;;;15.31;100.00;100261.95;1600382;89;21073;-74
2022/07/03 03:18:12;;;;;;;9.70;5.25;;;;;;;15.38;100.00;100263.38;1568460;91;21062;-73
2022/07/03 03:20:40;;;;;;;9.48;5.22;;;;;;;15.46;100.00;100256.95;1568447;91;21589;-73
2022/07/03 03:23:32;;;;;;;10.80;5.20;;;;;;;15.53;100.00;100267.38;1568414;91;21602;-73
2022/07/03 03:25:59;;;;;;;8.85;5.03;;;;;;;15.60;100.00;100266.05;1568651;91;21072;-74
2022/07/03 03:28:27;;;;;;;8.43;4.75;;;;;;;15.67;100.00;100269.66;1568425;91;21051;-73
2022/07/03 03:30:53;;;;;;;11.48;5.50;;;;;;;15.75;100.00;100268.19;1566952;91;21074;-73
2022/07/03 03:33:20;;;;;;;11.22;4.85;;;;;;;15.83;100.00;100273.50;1550648;93;21098;-74
2022/07/03 03:35:47;;;;;;;7.92;4.85;;;;;;;15.94;100.00;100269.37;1570861;91;21091;-74
2022/07/03 03:38:14;;;;;;;8.15;4.75;;;;;;;16.05;100.00;100274.77;1550701;92;21115;-74
2022/07/03 03:40:41;;;;;;;9.88;5.55;;;;;;;16.15;100.00;100277.98;1561389;90;21128;-74
2022/07/03 03:43:08;;;;;;;13.88;6.05;;;;;;;16.25;100.00;100279.80;1542410;91;21590;-73
2022/07/03 03:45:35;;;;;;;11.25;5.62;;;;;;;16.34;100.00;100281.83;1538670;93;21620;-74
2022/07/03 03:48:02;;;;;;;10.53;5.80;;;;;;;16.43;100.00;100281.14;1538709;93;21127;-74
2022/07/03 03:50:29;;;;;;;10.95;6.35;;;;;;;16.52;100.00;100285.39;1544573;91;21088;-73
2022/07/03 03:52:59;;;;;;;12.23;6.75;;;;;;;16.61;100.00;100288.26;1569386;91;21181;-74
2022/07/03 03:55:26;;;;;;;11.60;5.80;;;;;;;16.68;100.00;100291.85;1549773;91;21056;-75
2022/07/03 03:57:53;;;;;;;12.00;5.85;;;;;;;16.77;100.00;100294.37;1569306;91;21118;-73
2022/07/03 04:00:19;;;;;;;11.43;5.60;;;;;;;16.87;100.00;100292.13;1569268;91;21132;-72
2022/07/03 04:02:46;;;;;;;13.22;5.83;;;;;;;16.96;100.00;100288.16;1569226;91;21088;-74
2022/07/03 04:05:13;;;;;;;11.73;6.05;;;;;;;17.06;100.00;100285.87;1569415;91;21032;-74
2022/07/03 04:07:40;;;;;;;14.43;6.25;;;;;;;17.17;100.00;100288.50;1569383;91;21148;-74
2022/07/03 04:10:08;;;;;;;14.45;7.12;;;;;;;17.30;100.00;100289.07;1569347;90;21076;-73
2022/07/03 04:12:35;;;;;;;16.50;8.18;;;;;;;17.45;100.00;100287.48;1566857;90;21107;-75
2022/07/03 04:15:03;;;;;;;16.37;7.83;;;;;;;17.56;100.00;100288.74;1601416;90;21543;-74
2022/07/03 04:17:30;;;;;;;16.75;7.50;;;;;;;17.69;100.00;100291.48;1601312;90;21531;-73
2022/07/03 04:19:58;;;;;;;12.03;6.45;;;;;;;17.86;100.00;100295.16;1601510;90;21060;-73
2022/07/03 04:22:25;;;;;;;11.53;6.28;;;;;;;18.02;100.00;100294.70;1645444;86;21088;-74
2022/07/03 04:24:52;;;;;;;11.78;5.78;;;;;;;18.17;100.00;100298.05;1657778;85;21595;-73
2022/07/03 04:27:20;;;;;;;11.97;5.62;;;;;;;18.35;100.00;100299.27;1654811;86;21107;-73
2022/07/03 04:29:46;;;;;;;8.88;4.87;;;;;;;18.58;100.00;100305.59;1657794;85;21090;-74
2022/07/03 04:32:14;;;;;;;12.23;5.78;;;;;;;18.84;100.00;100306.03;1655149;87;21501;-74
2022/07/03 04:34:40;;;;;;;11.73;5.50;;;;;;;19.13;100.00;100317.45;1658142;87;21074;-76
2022/07/03 04:37:07;;;;;;;11.73;5.60;;;;;;;19.42;100.00;100315.96;1655118;86;21053;-75
2022/07/03 04:39:34;;;;;;;14.78;6.37;;;;;;;19.72;100.00;100321.65;1658003;87;21082;-75
2022/07/03 04:42:01;;;;;;;10.38;5.78;;;;;;;20.06;100.00;100326.83;1656133;86;21529;-74
2022/07/03 04:44:28;;;;;;;11.33;5.62;;;;;;;20.37;100.00;100331.36;1673912;86;21046;-75
2022/07/03 04:46:55;;;;;;;12.20;5.37;;;;;;;20.67;100.00;100338.86;1674320;86;21551;-75
2022/07/03 04:49:22;;;;;;;9.95;5.22;;;;;;;20.94;100.00;100345.39;1674205;86;21074;-74
2022/07/03 04:51:49;;;;;;;10.65;5.30;;;;;;;21.15;100.00;100346.25;1674285;86;21033;-75
2022/07/03 04:54:15;;;;;;;10.38;4.65;;;;;;;21.35;100.00;100341.81;1674238;85;21289;-74
2022/07/03 04:56:42;;;;;;;11.12;4.75;;;;;;;21.57;100.00;100340.78;1674118;86;21022;-75
2022/07/03 04:59:09;;;;;;;9.33;4.80;;;;;;;21.82;100.00;100340.28;1674096;86;21037;-75
2022/07/03 05:01:36;;;;;;;8.70;4.78;;;;;;;22.02;100.00;100348.18;1674134;86;21045;-76
2022/07/03 05:04:03;;;;;;;7.35;4.17;;;;;;;22.14;100.00;100345.72;1674308;86;21002;-75
2022/07/03 05:06:30;;;;;;;9.13;4.25;;;;;;;22.29;100.00;100343.03;1674241;86;21071;-75
2022/07/03 05:08:57;;;;;;;8.85;3.90;;;;;;;22.48;100.00;100355.59;1674024;86;21097;-74
2022/07/03 05:11:24;;;;;;;10.18;4.00;;;;;;;22.69;100.00;100348.59;1674222;84;21021;-75
2022/07/03 05:13:52;;;;;;;6.58;3.72;;;;;;;22.88;100.00;100355.33;1673947;84;21053;-74
2022/07/03 05:16:19;;;;;;;9.70;3.50;;;;;;;23.04;100.00;100359.22;1674286;86;21544;-74
2022/07/03 05:18:46;;;;;;;8.98;3.60;;;;;;;23.19;100.00;100359.53;1674220;86;21098;-76
2022/07/03 05:21:14;;;;;;;5.25;3.80;;;;;;;23.39;100.00;100364.61;1674241;86;21048;-76
2022/07/03 05:23:41;;;;;;;9.70;3.70;;;;;;;23.62;100.00;100359.49;1674298;86;21069;-76
2022/07/03 05:26:08;;;;;;;6.35;3.67;;;;;;;23.86;100.00;100363.49;1674013;86;21154;-76
2022/07/03 05:28:36;;;;;;;6.40;3.95;;;;;;;24.08;100.00;100370.45;1673984;86;21642;-77
2022/07/03 05:31:02;;;;;;;10.38;4.37;;;;;;;24.31;100.00;100365.81;1674275;86;21591;-74
2022/07/03 05:33:30;;;;;;;7.53;3.92;;;;;;;24.56;100.00;100360.69;1674135;86;21086;-77
2022/07/03 05:35:57;;;;;;;7.85;3.92;;;;;;;24.87;100.00;100365.77;1674153;85;21578;-75
2022/07/03 05:41:09;;;;;;;6.45;3.72;;;;;;;25.41;100.00;100365.84;1674370;85;21081;-76
2022/07/03 05:43:36;;;;;;;6.95;3.35;;;;;;;25.64;100.00;100366.58;1674348;86;21571;-77
2022/07/03 05:46:04;;;;;;;3.75;3.00;;;;;;;25.87;100.00;100367.63;1674334;85;21051;-76
2022/07/03 05:48:31;;;;;;;5.28;3.15;;;;;;;26.07;100.00;100368.36;1674170;86;20998;-76
2022/07/03 05:50:58;;;;;;;5.53;3.55;;;;;;;26.28;100.00;100367.13;1674009;85;21095;-75
2022/07/03 05:53:24;;;;;;;5.55;3.20;;;;;;;26.49;100.00;100363.91;1674235;86;21544;-76
2022/07/03 05:55:52;;;;;;;3.95;2.98;;;;;;;26.53;100.00;100365.86;1673842;84;21512;-76
2022/07/03 05:58:19;;;;;;;4.58;3.20;;;;;;;26.67;100.00;100361.25;1674039;86;21556;-75
2022/07/03 06:00:46;;;;;;;6.00;3.20;;;;;;;26.81;100.00;100359.64;1673930;86;21097;-77
2022/07/03 06:03:13;;;;;;;5.35;3.10;;;;;;;26.98;100.00;100360.80;1674153;86;21033;-76
2022/07/03 06:05:40;;;;;;;8.00;3.83;;;;;;;27.20;100.00;100368.09;1674135;86;21009;-76
2022/07/03 06:08:09;;;;;;;6.97;3.70;;;;;;;27.33;100.00;100360.64;1674072;85;21047;-77
2022/07/03 06:10:36;;;;;;;5.40;3.35;;;;;;;27.43;100.00;100368.17;1673877;84;21081;-76
2022/07/03 06:13:03;;;;;;;7.10;3.72;;;;;;;27.58;100.00;100367.34;1674080;86;20994;-77
2022/07/03 06:15:31;;;;;;;11.48;4.55;;;;;;;27.71;96.81;100366.80;1673885;86;21127;-77
2022/07/03 06:17:58;;;;;;;15.53;5.20;;;;;;;27.81;91.54;100364.56;1674148;86;21034;-76
2022/07/03 06:20:25;;;;;;;11.83;5.42;;;;;;;27.87;93.93;100363.47;1674115;86;21025;-76
2022/07/03 06:22:52;;;;;;;9.38;5.17;;;;;;;27.89;87.15;100361.77;1675981;86;21033;-76
2022/07/03 06:25:19;;;;;;;11.50;5.87;;;;;;;27.71;89.23;100357.08;1676266;86;21061;-76
2022/07/03 06:27:45;;;;;;;12.85;5.78;;;;;;;27.77;93.13;100360.13;1674164;86;21081;-74
2022/07/03 06:30:12;;;;;;;10.75;5.20;;;;;;;27.95;95.10;100354.58;1673932;85;21061;-77
2022/07/03 06:32:39;;;;;;;11.88;4.45;;;;;;;28.05;94.19;100358.45;1662717;84;21559;-77
2022/07/03 06:35:07;;;;;;;9.88;4.65;;;;;;;28.20;90.67;100359.83;1674224;86;20997;-76
2022/07/03 06:37:34;;;;;;;10.78;5.17;;;;;;;28.23;89.58;100355.67;1673998;86;21547;-75
2022/07/03 06:40:01;;;;;;;10.58;5.65;;;;;;;28.26;89.87;100352.30;1674090;86;21500;-76
2022/07/03 06:42:29;;;;;;;16.17;6.78;;;;;;;28.41;90.97;100349.49;1676685;85;21077;-78
2022/07/03 06:44:57;;;;;;;12.03;6.33;;;;;;;28.61;89.16;100345.01;1660342;86;21014;-76
2022/07/03 06:47:24;;;;;;;8.78;4.20;;;;;;;28.82;87.93;100348.53;1660338;86;21030;-76
2022/07/03 06:49:51;;;;;;;7.70;3.87;;;;;;;28.95;80.56;100345.97;1660286;86;21077;-76
2022/07/03 06:52:18;;;;;;;13.83;4.70;;;;;;;29.02;81.38;100338.70;1660168;86;21030;-76
2022/07/03 06:54:46;;;;;;;8.83;4.53;;;;;;;29.15;81.59;100340.86;1659930;86;21114;-77
2022/07/03 06:57:14;;;;;;;6.15;4.28;;;;;;;29.32;79.78;100345.20;1660237;85;21106;-75
2022/07/03 06:59:42;;;;;;;12.68;4.90;;;;;;;29.32;77.67;100334.91;1649115;86;21515;-76
2022/07/03 07:02:09;;;;;;;12.28;5.20;;;;;;;29.38;76.32;100345.45;1660213;86;21027;-77
2022/07/03 07:04:36;;;;;;;9.50;5.40;;;;;;;29.56;77.21;100335.56;1659998;85;21070;-76
2022/07/03 07:07:04;;;;;;;9.75;4.70;;;;;;;29.82;78.77;100334.82;1659925;86;21043;-76
2022/07/03 07:09:31;;;;;;;10.45;4.87;;;;;;;29.99;80.04;100346.91;1660239;86;21018;-77
2022/07/03 07:11:58;;;;;;;10.25;4.70;;;;;;;30.08;78.24;100340.98;1660128;86;21019;-76
2022/07/03 07:14:25;;;;;;;8.63;3.75;;;;;;;30.19;77.48;100334.73;1660234;86;21089;-76
2022/07/03 07:16:52;;;;;;;7.92;3.40;;;;;;;30.26;76.23;100336.61;1660360;86;21034;-76
2022/07/03 07:19:19;;;;;;;7.33;3.37;;;;;;;30.33;75.89;100333.44;1660336;86;21007;-77
2022/07/03 07:21:46;;;;;;;8.33;3.60;;;;;;;30.43;76.21;100332.54;1660475;86;21062;-77
2022/07/03 07:24:13;;;;;;;6.15;3.35;;;;;;;30.47;74.36;100323.83;1660493;86;21032;-76
2022/07/03 07:26:40;;;;;;;4.33;3.12;;;;;;;30.45;72.20;100326.91;1660155;86;21608;-76
2022/07/03 07:29:08;;;;;;;5.50;3.30;;;;;;;30.49;75.02;100327.15;1660171;86;21516;-77
2022/07/03 07:31:35;;;;;;;4.20;3.25;;;;;;;30.63;75.94;100315.55;1660412;86;21030;-76
2022/07/03 07:34:04;;;;;;;4.67;3.50;;;;;;;30.76;70.92;100320.14;1660510;86;21023;-76
2022/07/03 07:36:31;;;;;;;5.50;2.90;;;;;;;30.87;71.11;100311.87;1660473;86;21074;-76
2022/07/03 07:38:58;;;;;;;3.30;2.92;;;;;;;30.99;66.26;100310.91;1660153;86;21014;-75
2022/07/03 07:41:25;;;;;;;4.20;3.15;;;;;;;31.11;65.56;100311.86;1662816;85;21041;-75
2022/07/03 07:43:52;;;;;;;5.45;2.87;;;;;;;31.30;63.75;100313.80;1669854;86;21054;-75
2022/07/03 07:46:19;;;;;;;5.17;3.10;;;;;;;31.53;62.56;100308.69;1669859;86;21048;-75
2022/07/03 07:48:47;;;;;;;5.42;2.90;;;;;;;31.78;59.82;100307.98;1669795;86;21089;-75
2022/07/03 07:51:14;;;;;;;6.72;2.98;;;;;;;32.01;55.69;100304.77;1669890;85;21050;-77
2022/07/03 07:53:41;;;;;;;8.60;3.50;;;;;;;32.04;48.65;100306.98;1669999;86;21464;-77
2022/07/03 07:56:08;;;;;;;4.62;3.40;;;;;;;31.80;49.23;100295.92;1669898;86;21030;-77
2022/07/03 07:58:35;;;;;;;7.15;3.27;;;;;;;31.46;51.35;100307.39;1669578;85;21066;-76
2022/07/03 08:06:34;;;;;;;6.47;3.95;;;;;;;31.89;52.01;100296.89;1669672;86;21081;-79
2022/07/03 08:09:03;;;;;;;10.08;3.50;;;;;;;32.08;52.63;100298.80;1670290;85;21018;-79
2022/07/03 08:11:30;;;;;;;7.53;2.80;;;;;;;32.14;54.74;100290.59;1669930;86;21501;-80
2022/07/03 08:13:59;;;;;;;6.55;3.17;;;;;;;32.21;51.16;100291.55;1670348;86;21057;-79
2022/07/03 08:16:28;;;;;;;6.83;3.33;;;;;;;32.19;47.10;100288.23;1670909;86;21188;-85
2022/07/03 08:18:55;;;;;;;5.25;3.02;;;;;;;31.84;45.99;100289.99;1671533;86;21017;-85
2022/07/03 08:21:58;;;;;;;7.47;3.25;;;;;;;31.67;49.26;100290.56;1672521;86;21094;-85
2022/07/03 08:24:25;;;;;;;4.28;3.10;;;;;;;31.73;51.20;100285.70;1674511;85;21018;-85
2022/07/03 08:26:53;;;;;;;6.72;2.87;;;;;;;31.89;53.54;100280.11;1695683;84;21139;-83
2022/07/03 08:29:27;;;;;;;9.18;3.10;;;;;;;32.04;51.61;100279.56;1675163;86;21008;-86
2022/07/03 08:31:54;;;;;;;5.85;3.35;;;;;;;32.17;50.09;100273.16;1674836;86;21011;-81
2022/07/03 08:34:22;;;;;;;6.30;3.25;;;;;;;32.18;46.54;100272.61;1675181;86;21786;-84
2022/07/03 08:36:51;;;;;;;4.28;3.20;;;;;;;32.26;50.05;100272.72;1674592;86;21071;-82
2022/07/03 08:39:21;;;;;;;3.70;3.25;;;;;;;32.49;51.21;100274.18;1674974;86;21153;-84
2022/07/03 08:41:49;;;;;;;7.60;3.33;;;;;;;32.71;51.49;100270.09;1671122;85;21130;-83
2022/07/03 08:44:19;;;;;;;6.33;3.08;;;;;;;32.88;53.30;100269.44;1664656;85;21578;-81
2022/07/03 08:46:46;;;;;;;6.75;3.00;;;;;;;33.04;49.07;100272.70;1674579;86;21079;-83
2022/07/03 08:49:14;;;;;;;4.87;2.80;;;;;;;33.10;47.25;100272.83;1673267;85;21063;-82
2022/07/03 08:51:42;;;;;;;5.60;3.20;;;;;;;33.17;46.84;100277.20;1673625;86;21028;-81
2022/07/03 08:54:10;;;;;;;5.47;3.77;;;;;;;33.18;45.12;100270.44;1673414;86;21060;-84
2022/07/03 08:56:37;;;;;;;7.67;4.08;;;;;;;33.19;46.90;100269.31;1673366;86;21044;-81
2022/07/03 08:59:07;;;;;;;8.63;3.83;;;;;;;33.24;45.80;100268.61;1673295;86;21012;-82
2022/07/03 09:01:39;;;;;;;6.42;3.50;;;;;;;33.28;44.93;100265.99;1690515;85;21093;-81
2022/07/03 09:04:04;;;;;;;7.35;3.40;;;;;;;33.28;46.08;100273.81;1693553;83;21037;-82
2022/07/03 09:06:33;;;;;;;4.60;3.20;;;;;;;33.37;44.14;100275.28;1679216;85;21006;-74
2022/07/03 09:09:02;;;;;;;8.13;3.27;;;;;;;33.29;43.76;100276.89;1658621;86;21089;-75
2022/07/03 09:11:30;;;;;;;4.97;3.30;;;;;;;33.36;42.89;100280.66;1670699;84;21500;-75
2022/07/03 09:13:56;;;;;;;5.15;2.60;;;;;;;33.54;42.45;100279.34;1670829;86;21030;-83
2022/07/03 09:16:24;;;;;;;5.42;3.15;;;;;;;33.20;38.41;100272.34;1670288;85;21091;-81
2022/07/03 09:18:51;;;;;;;7.90;3.83;;;;;;;32.84;41.85;100276.79;1670608;84;21089;-81
2022/07/03 09:21:18;;;;;;;5.17;3.27;;;;;;;33.03;42.67;100278.63;1670643;86;21026;-81
2022/07/03 09:23:46;;;;;;;7.58;3.87;;;;;;;33.15;39.85;100278.92;1670509;84;21034;-81
2022/07/03 09:26:18;;;;;;;4.62;3.00;;;;;;;33.12;41.37;100275.31;1670322;86;21125;-80
2022/07/03 09:31:24;;;;;;;6.45;2.70;;;;;;;33.30;41.52;100279.11;1679526;85;21012;-79
2022/07/03 09:34:02;;;;;;;5.10;3.15;;;;;;;33.43;40.13;100271.77;1679635;85;21047;-80
2022/07/03 09:36:50;;;;;;;8.53;3.25;;;;;;;33.37;40.52;100271.08;1679364;84;21052;-79
2022/07/03 09:39:24;;;;;;;7.37;2.80;;;;;;;33.39;41.49;100270.77;1679469;85;21634;-79
2022/07/03 09:42:05;;;;;;;6.20;2.98;;;;;;;33.55;40.50;100265.59;1679377;85;21044;-77
2022/07/03 09:44:45;;;;;;;4.65;3.40;;;;;;;33.58;36.04;100260.75;1592086;90;21058;-76
2022/07/03 09:47:25;;;;;;;10.23;3.20;;;;;;;33.12;35.16;100258.51;1592164;87;21127;-77
2022/07/03 09:49:59;;;;;;;6.22;3.10;;;;;;;32.79;37.18;100251.70;1593328;90;21021;-78
2022/07/03 09:52:44;;;;;;;6.70;3.10;;;;;;;33.06;39.70;100254.16;1544949;92;21109;-78
2022/07/03 09:55:15;;;;;;;4.20;2.90;;;;;;;33.34;36.61;100257.70;1543921;93;21125;-77
2022/07/03 09:57:56;;;;;;;4.22;2.80;;;;;;;33.25;38.35;100248.41;1543089;93;21157;-77
2022/07/03 10:00:26;;;;;;;4.12;3.00;;;;;;;33.50;39.34;100248.33;1542780;93;21173;-79
2022/07/03 10:03:04;;;;;;;10.15;3.08;;;;;;;33.90;38.90;100247.59;1542540;93;21085;-77
2022/07/03 10:05:36;;;;;;;3.75;2.65;;;;;;;34.06;37.96;100241.80;1542378;93;21155;-77
2022/07/03 10:08:15;;;;;;;7.72;2.80;;;;;;;34.02;36.84;100238.00;1542381;93;21093;-77
2022/07/03 10:10:46;;;;;;;5.00;2.70;;;;;;;33.72;36.61;100248.09;1514247;95;21074;-77
2022/07/03 10:13:14;;;;;;;7.70;3.25;;;;;;;33.81;39.14;100251.17;1449455;96;21611;-78
2022/07/03 10:15:43;;;;;;;3.05;2.65;;;;;;;34.05;37.73;100240.98;1444702;99;21580;-79
2022/07/03 10:18:12;;;;;;;6.37;3.10;;;;;;;34.21;38.00;100234.94;1445131;99;21116;-79
2022/07/03 10:20:42;;;;;;;3.45;2.45;;;;;;;34.37;37.10;100226.88;1445310;99;21220;-81
2022/07/03 10:23:10;;;;;;;7.40;2.50;;;;;;;34.48;36.68;100224.63;1442730;99;21085;-79
2022/07/03 10:25:37;;;;;;;4.62;2.70;;;;;;;34.57;36.04;100217.84;1445360;99;21128;-80
2022/07/03 10:28:04;;;;;;;6.87;2.95;;;;;;;34.66;35.16;100217.86;1421117;100;21118;-79
2022/07/03 10:30:32;;;;;;;4.83;2.70;;;;;;;34.41;33.24;100215.28;1432289;99;21102;-78
2022/07/03 10:32:59;;;;;;;11.43;3.20;;;;;;;34.23;35.76;100215.23;1432097;100;21106;-82
2022/07/03 10:35:34;;;;;;;4.60;2.67;;;;;;;34.38;36.11;100208.91;1432221;99;21123;-77
2022/07/03 10:38:07;;;;;;;3.55;2.90;;;;;;;34.50;35.88;100209.09;1432301;99;21169;-78
2022/07/03 10:46:40;;;;;;;4.20;2.90;;;;;;;34.63;35.33;100203.06;1366933;98;21117;-80
2022/07/03 10:49:08;;;;;;;2.62;2.40;;;;;;;34.50;32.08;100198.45;1495704;94;21642;-79
2022/07/03 10:52:01;;;;;;;4.42;2.90;;;;;;;34.31;34.00;100199.56;1563016;92;21116;-79
2022/07/03 10:54:36;;;;;;;4.12;2.70;;;;;;;34.23;32.36;100208.22;1562855;92;21587;-77
2022/07/03 10:57:10;;;;;;;4.08;2.70;;;;;;;34.09;34.54;100206.09;1562861;92;21122;-79
2022/07/03 10:59:43;;;;;;;3.52;2.95;;;;;;;34.29;35.51;100206.66;1563033;92;21580;-80
2022/07/03 11:02:40;;;;;;;2.83;2.52;;;;;;;34.55;35.67;100193.49;1562851;92;21073;-79
2022/07/03 11:05:22;;;;;;;5.47;2.90;;;;;;;34.73;36.04;100199.16;1563179;92;21061;-76
2022/07/03 11:07:57;;;;;;;2.50;2.30;;;;;;;34.52;33.01;100201.16;1595657;89;21039;-78
2022/07/03 11:10:29;;;;;;;9.28;3.22;;;;;;;34.54;33.12;100199.44;1634501;87;21089;-79
2022/07/03 11:13:00;;;;;;;7.62;2.95;;;;;;;34.74;33.54;100190.96;1627104;88;21128;-79
2022/07/03 11:15:51;;;;;;;4.60;2.75;;;;;;;34.91;33.51;100178.91;1665507;86;21015;-77
2022/07/03 11:18:30;;;;;;;3.02;2.52;;;;;;;34.82;31.76;100186.52;1651115;87;21062;-78
2022/07/03 11:21:22;;;;;;;6.17;2.72;;;;;;;34.27;32.71;100187.93;1628467;87;21487;-77
2022/07/03 11:24:04;;;;;;;3.02;2.70;;;;;;;34.07;32.20;100183.16;1530831;94;21110;-78
2022/07/03 11:26:32;;;;;;;4.37;2.95;;;;;;;33.42;32.83;100184.66;1547207;92;21125;-78
2022/07/03 11:28:59;;;;;;;10.40;3.05;;;;;;;33.05;34.48;100193.13;1574660;91;21076;-79
2022/07/03 11:31:26;;;;;;;4.90;2.80;;;;;;;33.07;35.90;100186.63;1574666;90;21071;-78
2022/07/03 11:33:58;;;;;;;3.40;2.77;;;;;;;33.29;36.31;100185.83;1574920;90;21049;-79
2022/07/03 11:36:31;;;;;;;3.20;2.90;;;;;;;33.62;35.92;100180.47;1574751;91;21104;-78
2022/07/03 11:39:04;;;;;;;5.62;2.70;;;;;;;33.96;34.92;100183.18;1574639;91;21574;-79
2022/07/03 11:41:41;;;;;;;3.37;2.80;;;;;;;34.27;34.73;100169.69;1574929;90;21092;-79
2022/07/03 11:44:09;;;;;;;4.60;2.75;;;;;;;34.58;34.70;100171.79;1575327;90;21084;-81
2022/07/03 11:46:39;;;;;;;5.87;2.98;;;;;;;34.76;34.21;100160.00;1574482;91;21079;-79
2022/07/03 11:49:15;;;;;;;8.65;3.37;;;;;;;34.72;34.20;100163.20;1574464;91;21402;-76
2022/07/03 11:51:58;;;;;;;2.87;2.67;;;;;;;34.78;34.35;100166.11;1574699;90;21145;-77
2022/07/03 11:54:25;;;;;;;6.78;2.83;;;;;;;34.87;35.25;100159.67;1579544;90;21059;-80